Time;durP1;ratioP1;P1;durP2;ratioP2;P2;SDS_P1;SDS_P2;PMS_P1;PMS_P2;Temp;Humidity;BMP_temperature;BMP_pressure;BME280_temperature;BME280_humidity;BME280_pressure;Samples;Min_cycle;Max_cycle;Signal;HPM_P1;HPM_P2
2022/01/12 00:01:12;;;;;;;10.35;8.40;;;2.10;58.50;;;;;;5078802;28;20213;-79
2022/01/12 00:03:39;;;;;;;10.00;6.78;;;2.20;58.90;;;;;;5072413;28;20218;-77
2022/01/12 00:06:06;;;;;;;11.13;7.47;;;2.20;58.80;;;;;;5068901;28;20317;-77
2022/01/12 00:08:34;;;;;;;10.63;6.68;;;2.20;58.60;;;;;;5066655;28;20214;-77
2022/01/12 00:11:02;;;;;;;11.43;7.65;;;2.30;58.80;;;;;;5065609;28;20199;-79
2022/01/12 00:13:29;;;;;;;10.95;7.45;;;2.20;59.50;;;;;;5058269;28;20227;-77
2022/01/12 00:15:58;;;;;;;11.20;7.45;;;2.30;58.80;;;;;;5056489;28;20205;-79
2022/01/12 00:18:25;;;;;;;9.88;6.97;;;2.30;59.20;;;;;;5055002;28;20206;-78
2022/01/12 00:20:54;;;;;;;9.75;6.70;;;2.20;58.80;;;;;;5056503;28;20293;-79
2022/01/12 00:23:22;;;;;;;12.05;7.57;;;2.30;59.40;;;;;;5056819;28;20744;-79
2022/01/12 00:26:05;;;;;;;11.32;7.57;;;2.30;59.00;;;;;;5059113;28;20603;-77
2022/01/12 00:34:06;;;;;;;8.95;6.63;;;2.30;58.50;;;;;;5063877;28;20573;-78
2022/01/12 00:36:34;;;;;;;12.63;8.93;;;2.30;58.10;;;;;;5062069;28;20210;-78
2022/01/12 00:39:02;;;;;;;11.95;8.02;;;2.30;58.40;;;;;;5059100;28;20233;-77
2022/01/12 00:41:29;;;;;;;11.95;7.95;;;2.30;58.50;;;;;;5060892;28;20202;-78
2022/01/12 00:44:00;;;;;;;9.68;7.40;;;2.30;58.60;;;;;;5064407;28;20222;-77
2022/01/12 00:46:30;;;;;;;10.10;7.35;;;2.30;58.90;;;;;;5066275;28;20282;-76
2022/01/12 00:48:59;;;;;;;10.02;6.75;;;2.20;58.60;;;;;;5068366;28;20274;-78
2022/01/12 00:51:31;;;;;;;9.68;7.22;;;2.30;58.70;;;;;;5069934;28;20210;-77
2022/01/12 00:53:59;;;;;;;9.43;7.25;;;2.20;58.30;;;;;;5072584;28;20265;-78
2022/01/12 00:56:26;;;;;;;10.05;6.95;;;2.20;58.60;;;;;;5061894;28;20256;-77
2022/01/12 00:58:53;;;;;;;10.57;6.60;;;2.10;58.60;;;;;;5054967;28;20580;-77
2022/01/12 01:01:23;;;;;;;9.82;7.07;;;2.10;58.70;;;;;;5055404;28;20265;-77
2022/01/12 01:03:52;;;;;;;10.75;6.88;;;2.10;58.80;;;;;;5054853;28;20236;-77
2022/01/12 01:06:20;;;;;;;11.20;6.95;;;2.10;59.00;;;;;;5054884;28;20322;-77
2022/01/12 01:08:50;;;;;;;12.73;6.75;;;2.10;59.60;;;;;;5055331;28;20289;-77
2022/01/12 01:11:17;;;;;;;10.15;8.00;;;2.00;59.60;;;;;;5055095;28;20206;-77
2022/01/12 01:13:55;;;;;;;10.98;7.95;;;2.00;59.80;;;;;;5054487;28;20586;-77
2022/01/12 01:16:27;;;;;;;9.95;6.65;;;1.90;59.80;;;;;;5055224;28;20642;-77
2022/01/12 01:27:08;;;;;;;10.73;6.78;;;1.70;61.50;;;;;;5056814;28;20189;-76
2022/01/12 01:29:35;;;;;;;12.60;7.35;;;1.70;61.50;;;;;;5057633;28;20692;-77
2022/01/12 01:32:03;;;;;;;10.52;7.40;;;1.60;61.40;;;;;;5068736;28;20202;-79
2022/01/12 01:34:32;;;;;;;10.05;7.00;;;1.50;61.40;;;;;;5076808;28;20195;-79
2022/01/12 01:36:59;;;;;;;12.20;7.55;;;1.60;62.10;;;;;;5077467;28;20191;-78
2022/01/12 01:39:29;;;;;;;10.85;7.57;;;1.50;61.90;;;;;;5074193;28;20206;-77
2022/01/12 01:42:00;;;;;;;11.23;7.85;;;1.30;62.50;;;;;;5059018;28;20210;-77
2022/01/12 01:55:32;;;;;;;11.27;7.93;;;1.20;65.00;;;;;;5014507;28;20355;-77
2022/01/12 01:57:59;;;;;;;11.93;8.15;;;1.10;65.10;;;;;;5014050;28;20235;-76
2022/01/12 02:00:28;;;;;;;12.80;7.65;;;1.00;65.30;;;;;;5013135;28;20219;-76
2022/01/12 02:02:57;;;;;;;12.07;7.45;;;1.00;67.10;;;;;;4993231;28;20228;-76
2022/01/12 02:05:26;;;;;;;11.88;8.77;;;1.00;66.70;;;;;;4993096;28;20644;-77
2022/01/12 02:07:54;;;;;;;11.60;8.43;;;1.00;67.20;;;;;;4998648;28;20242;-76
2022/01/12 02:10:21;;;;;;;12.88;7.72;;;1.00;67.30;;;;;;5012715;28;20214;-76
2022/01/12 02:12:48;;;;;;;12.95;8.93;;;1.00;67.50;;;;;;5012052;28;20685;-77
2022/01/12 02:15:18;;;;;;;12.68;7.60;;;0.90;68.00;;;;;;5012477;28;20200;-77
2022/01/12 02:18:02;;;;;;;11.88;8.25;;;0.80;68.50;;;;;;5012092;28;20254;-77
2022/01/12 02:37:16;;;;;;;13.38;8.70;;;0.40;73.10;;;;;;5033942;28;20234;-77
2022/01/12 02:39:53;;;;;;;13.07;9.18;;;0.40;73.00;;;;;;5033203;28;20223;-77
2022/01/12 02:42:20;;;;;;;14.05;8.52;;;0.40;73.60;;;;;;5035708;28;20265;-76
2022/01/12 02:55:47;;;;;;;16.08;10.30;;;0.30;75.20;;;;;;5016261;28;20225;-76
2022/01/12 02:58:14;;;;;;;19.60;9.50;;;0.30;75.60;;;;;;5016665;28;20223;-76
2022/01/12 03:01:01;;;;;;;12.65;9.70;;;0.30;75.60;;;;;;5015556;28;20287;-77
2022/01/12 03:03:32;;;;;;;14.98;8.52;;;0.30;76.10;;;;;;5015137;28;20232;-76
2022/01/12 03:06:01;;;;;;;12.10;8.48;;;0.30;76.10;;;;;;5015147;28;20211;-76
2022/01/12 03:08:29;;;;;;;16.65;9.50;;;0.20;75.90;;;;;;5014958;28;20207;-76
2022/01/12 03:10:57;;;;;;;15.80;10.20;;;0.20;76.60;;;;;;5014887;28;20203;-76
2022/01/12 03:13:24;;;;;;;14.50;9.15;;;0.20;77.30;;;;;;5017449;28;20311;-75
2022/01/12 03:15:51;;;;;;;15.15;9.32;;;0.10;77.30;;;;;;5019077;28;20579;-76
2022/01/12 03:18:18;;;;;;;13.00;8.80;;;0.10;77.30;;;;;;5020612;28;20295;-75
2022/01/12 03:20:46;;;;;;;13.68;8.70;;;0.10;77.30;;;;;;5017173;28;20211;-75
2022/01/12 03:23:14;;;;;;;14.27;9.10;;;0.10;77.30;;;;;;5014732;28;20231;-75
2022/01/12 03:25:41;;;;;;;17.00;9.60;;;0.00;77.20;;;;;;5014951;28;20220;-75
2022/01/12 03:28:10;;;;;;;11.98;9.27;;;-0.10;78.60;;;;;;5014771;28;20215;-75
2022/01/12 03:30:47;;;;;;;14.18;8.75;;;-0.10;79.20;;;;;;5013810;28;20208;-75
2022/01/12 03:33:29;;;;;;;14.02;8.90;;;-0.10;79.80;;;;;;5017774;28;20219;-76
2022/01/12 03:36:22;;;;;;;14.13;9.00;;;-0.10;80.60;;;;;;5015085;28;20218;-76
2022/01/12 03:38:49;;;;;;;13.80;8.55;;;-0.10;81.20;;;;;;5014565;28;20199;-75
2022/01/12 03:41:17;;;;;;;13.48;9.38;;;-0.10;81.00;;;;;;5014631;28;20274;-76
2022/01/12 03:43:46;;;;;;;17.35;9.10;;;-0.20;80.80;;;;;;5015147;28;20709;-76
2022/01/12 03:46:15;;;;;;;14.38;8.65;;;-0.30;81.10;;;;;;5015064;28;20311;-75
2022/01/12 03:48:42;;;;;;;17.35;9.60;;;-0.20;81.30;;;;;;5013730;28;20277;-75
2022/01/12 03:51:09;;;;;;;13.95;9.13;;;-0.20;81.10;;;;;;5013657;28;20265;-76
2022/01/12 03:53:36;;;;;;;13.73;9.82;;;-0.20;81.20;;;;;;5013720;28;20258;-76
2022/01/12 03:56:03;;;;;;;18.08;9.60;;;-0.20;81.10;;;;;;5013946;28;20200;-75
2022/01/12 03:58:30;;;;;;;15.00;9.25;;;-0.30;81.00;;;;;;5013736;28;20215;-76
2022/01/12 04:00:58;;;;;;;14.10;9.70;;;-0.30;81.30;;;;;;5016027;28;20385;-76
2022/01/12 04:03:25;;;;;;;18.50;11.10;;;-0.20;81.90;;;;;;5014646;28;20239;-75
2022/01/12 04:08:37;;;;;;;16.17;10.50;;;-0.30;81.90;;;;;;5026203;28;20652;-75
2022/01/12 04:11:04;;;;;;;16.15;10.57;;;-0.30;82.30;;;;;;5023969;28;20196;-75
2022/01/12 04:13:32;;;;;;;15.27;9.30;;;-0.30;82.70;;;;;;5023277;28;20234;-75
2022/01/12 04:16:03;;;;;;;15.75;9.80;;;-0.30;82.10;;;;;;5026017;28;20231;-75
2022/01/12 04:18:30;;;;;;;16.90;9.70;;;-0.40;81.90;;;;;;5014903;28;20295;-75
2022/01/12 04:21:00;;;;;;;15.18;9.60;;;-0.50;82.80;;;;;;5013923;28;20243;-74
2022/01/12 04:23:27;;;;;;;15.77;9.85;;;-0.50;83.30;;;;;;5008323;28;20219;-74
2022/01/12 04:25:56;;;;;;;16.30;9.70;;;-0.50;84.10;;;;;;5012973;28;20220;-74
2022/01/12 04:28:24;;;;;;;17.83;10.25;;;-0.40;84.10;;;;;;5013922;28;20239;-74
2022/01/12 04:30:52;;;;;;;16.55;10.38;;;-0.50;84.80;;;;;;5029063;28;20298;-75
2022/01/12 04:33:21;;;;;;;17.70;10.85;;;-0.50;84.30;;;;;;5013823;28;20235;-75
2022/01/12 04:35:51;;;;;;;15.80;9.75;;;-0.60;84.80;;;;;;5013265;28;20638;-75
2022/01/12 04:38:21;;;;;;;14.00;9.90;;;-0.60;84.90;;;;;;5013730;28;20216;-75
2022/01/12 04:40:49;;;;;;;15.50;10.20;;;-0.70;84.80;;;;;;5013531;28;20234;-75
2022/01/12 04:43:17;;;;;;;19.00;10.60;;;-0.70;85.00;;;;;;5014058;28;20228;-76
2022/01/12 04:45:58;;;;;;;17.52;10.65;;;-0.70;85.70;;;;;;5014787;28;20326;-76
2022/01/12 04:48:36;;;;;;;16.55;10.65;;;-0.70;86.10;;;;;;5015165;28;20204;-77
2022/01/12 04:51:03;;;;;;;15.52;10.63;;;-0.80;86.60;;;;;;5016120;28;20204;-76
2022/01/12 04:53:31;;;;;;;18.55;10.90;;;-0.80;87.30;;;;;;5020581;28;20267;-77
2022/01/12 04:55:59;;;;;;;16.10;11.60;;;-0.80;88.30;;;;;;5027303;28;20211;-75
2022/01/12 04:58:28;;;;;;;16.35;10.50;;;-0.90;88.70;;;;;;5020547;28;20239;-75
2022/01/12 05:01:02;;;;;;;16.20;10.75;;;-0.90;89.20;;;;;;5027550;28;20216;-77
2022/01/12 05:09:09;;;;;;;15.95;9.70;;;-1.00;91.30;;;;;;4993301;28;20296;-76
2022/01/12 05:14:22;;;;;;;17.33;11.38;;;-1.00;92.20;;;;;;5012934;28;20226;-75
2022/01/12 05:16:50;;;;;;;20.42;11.57;;;-1.10;92.50;;;;;;5012904;28;20196;-75
2022/01/12 05:19:18;;;;;;;19.08;10.25;;;-1.10;92.80;;;;;;5012490;28;20647;-75
2022/01/12 05:21:45;;;;;;;20.70;11.98;;;-1.10;92.80;;;;;;5012623;28;20678;-76
2022/01/12 05:24:12;;;;;;;16.52;10.43;;;-1.10;93.10;;;;;;5007441;28;20306;-76
2022/01/12 05:26:40;;;;;;;20.38;11.18;;;-1.10;93.40;;;;;;5013409;28;20601;-75
2022/01/12 05:29:07;;;;;;;18.90;12.10;;;-1.10;93.40;;;;;;5014740;28;20235;-75
2022/01/12 05:31:34;;;;;;;15.82;10.35;;;-1.10;93.60;;;;;;5013574;28;20694;-76
2022/01/12 05:34:02;;;;;;;17.75;11.07;;;-1.10;93.50;;;;;;5016296;28;20250;-75
2022/01/12 05:36:32;;;;;;;17.77;11.05;;;-1.10;93.90;;;;;;5019023;28;20266;-76
2022/01/12 05:38:59;;;;;;;20.17;11.60;;;-1.20;93.90;;;;;;5017491;28;20238;-75
2022/01/12 05:41:27;;;;;;;20.15;11.73;;;-1.20;94.10;;;;;;5016844;28;20218;-75
2022/01/12 05:43:54;;;;;;;17.35;11.40;;;-1.20;94.20;;;;;;5013788;28;20235;-76
2022/01/12 05:46:24;;;;;;;21.67;11.98;;;-1.20;94.40;;;;;;5015360;28;20254;-75
2022/01/12 05:51:38;;;;;;;19.60;11.23;;;-1.20;94.50;;;;;;5019939;28;20222;-76
2022/01/12 05:54:05;;;;;;;16.73;10.07;;;-1.20;94.80;;;;;;5019183;28;20239;-76
2022/01/12 05:56:31;;;;;;;23.42;12.85;;;-1.20;94.70;;;;;;5013443;28;20230;-75
2022/01/12 05:58:58;;;;;;;16.58;10.70;;;-1.20;94.60;;;;;;5013598;28;20213;-75
2022/01/12 06:01:25;;;;;;;20.52;11.50;;;-1.20;94.60;;;;;;5013103;28;20272;-75
2022/01/12 06:03:52;;;;;;;18.02;10.90;;;-1.20;94.60;;;;;;5013743;28;20254;-76
2022/01/12 06:06:19;;;;;;;17.02;11.25;;;-1.20;94.50;;;;;;5013228;28;20323;-75
2022/01/12 06:08:47;;;;;;;20.05;12.65;;;-1.20;94.60;;;;;;5015971;28;20215;-74
2022/01/12 06:11:14;;;;;;;20.15;11.73;;;-1.20;94.60;;;;;;5016809;28;20299;-74
2022/01/12 06:13:41;;;;;;;21.95;11.30;;;-1.20;94.60;;;;;;5014957;28;20326;-74
2022/01/12 06:16:08;;;;;;;21.15;12.20;;;-1.10;94.80;;;;;;5015367;28;20369;-74
2022/01/12 06:18:35;;;;;;;18.73;12.70;;;-1.10;94.60;;;;;;5016952;28;20211;-75
2022/01/12 06:21:02;;;;;;;17.08;11.85;;;-1.00;94.60;;;;;;5016797;28;20211;-74
2022/01/12 06:23:28;;;;;;;19.63;11.50;;;-0.90;94.70;;;;;;5016810;28;20314;-75
2022/01/12 06:25:57;;;;;;;20.00;12.10;;;-0.90;94.10;;;;;;5016667;28;20211;-74
2022/01/12 06:28:37;;;;;;;18.00;12.15;;;-0.80;93.40;;;;;;5017148;28;20204;-74
2022/01/12 06:31:13;;;;;;;21.95;12.90;;;-0.80;92.90;;;;;;5017340;28;20584;-75
2022/01/12 06:33:42;;;;;;;21.42;12.32;;;-0.80;92.90;;;;;;5017124;28;20329;-75
2022/01/12 06:36:09;;;;;;;19.85;12.25;;;-0.80;92.30;;;;;;5016959;28;20208;-74
2022/01/12 06:38:36;;;;;;;19.83;12.60;;;-0.70;91.20;;;;;;5016252;28;20211;-76
2022/01/12 06:41:05;;;;;;;17.65;11.98;;;-0.70;90.70;;;;;;5017290;28;20212;-75
2022/01/12 06:43:32;;;;;;;20.13;13.20;;;-0.80;90.30;;;;;;5016432;28;20232;-75
2022/01/12 06:45:59;;;;;;;18.02;12.10;;;-0.80;90.30;;;;;;5016801;28;20645;-75
2022/01/12 06:48:26;;;;;;;20.65;13.18;;;-0.80;90.10;;;;;;5016589;28;20227;-74
2022/01/12 06:50:53;;;;;;;20.45;12.85;;;-0.80;88.80;;;;;;5017797;28;20227;-76
2022/01/12 06:53:20;;;;;;;17.80;12.75;;;-0.80;88.70;;;;;;5016681;28;20246;-76
2022/01/12 06:55:47;;;;;;;20.67;12.60;;;-0.80;88.70;;;;;;5016011;28;20208;-76
2022/01/12 06:58:15;;;;;;;23.38;14.02;;;-0.80;89.00;;;;;;5016973;28;20215;-75
2022/01/12 07:00:42;;;;;;;18.85;12.77;;;-0.70;88.80;;;;;;5017591;28;20211;-75
2022/01/12 07:03:09;;;;;;;22.73;13.65;;;-0.70;88.80;;;;;;5018216;28;20242;-75
2022/01/12 07:05:36;;;;;;;20.25;13.32;;;-0.70;87.00;;;;;;5017983;28;20208;-75
2022/01/12 07:08:03;;;;;;;21.67;13.45;;;-0.70;85.80;;;;;;5019021;28;20227;-75
2022/01/12 07:10:30;;;;;;;20.50;12.68;;;-0.70;84.80;;;;;;5018304;28;20283;-74
2022/01/12 07:12:57;;;;;;;17.48;11.90;;;-0.70;83.50;;;;;;5019267;28;20238;-76
2022/01/12 07:15:29;;;;;;;19.95;13.02;;;-0.70;83.00;;;;;;5018926;28;20239;-76
2022/01/12 07:17:58;;;;;;;18.50;12.80;;;-0.70;82.50;;;;;;5027514;28;20267;-76
2022/01/12 07:20:25;;;;;;;17.00;12.27;;;-0.70;82.40;;;;;;5024173;28;20231;-75
2022/01/12 07:22:52;;;;;;;20.35;13.02;;;-0.80;82.30;;;;;;5027237;28;20291;-75
2022/01/12 07:25:19;;;;;;;22.40;14.60;;;-0.80;82.40;;;;;;5029500;28;20212;-75
2022/01/12 07:27:46;;;;;;;19.90;12.48;;;-0.80;82.90;;;;;;5023798;28;20231;-75
2022/01/12 07:30:13;;;;;;;18.67;13.07;;;-0.80;83.50;;;;;;5020842;28;20236;-74
2022/01/12 07:32:42;;;;;;;18.65;12.15;;;-0.80;83.60;;;;;;5018648;28;20259;-76
2022/01/12 07:35:09;;;;;;;20.33;13.43;;;-0.80;84.20;;;;;;5016596;28;20714;-75
2022/01/12 07:37:36;;;;;;;19.35;12.13;;;-0.80;84.50;;;;;;5016100;28;20213;-75
2022/01/12 07:40:04;;;;;;;24.13;14.50;;;-0.90;84.60;;;;;;5019537;28;20675;-76
2022/01/12 07:42:31;;;;;;;17.45;11.60;;;-0.80;85.30;;;;;;5019297;28;20234;-74
2022/01/12 07:45:01;;;;;;;21.10;13.85;;;-0.80;85.70;;;;;;5022940;28;20258;-77
2022/01/12 07:47:28;;;;;;;20.27;12.95;;;-0.80;85.00;;;;;;5018511;28;20298;-76
2022/01/12 07:49:58;;;;;;;19.88;11.80;;;-0.80;85.30;;;;;;5017553;28;20208;-76
2022/01/12 07:55:00;;;;;;;19.20;11.57;;;-0.90;86.50;;;;;;5063876;28;20219;-74
2022/01/12 07:57:27;;;;;;;20.65;12.23;;;-0.90;87.00;;;;;;5067104;28;20711;-76
2022/01/12 07:59:53;;;;;;;23.67;12.85;;;-0.80;87.20;;;;;;5069233;28;20266;-76
2022/01/12 08:02:20;;;;;;;23.25;14.00;;;-0.80;86.90;;;;;;5069899;28;20213;-75
2022/01/12 08:04:47;;;;;;;19.77;13.45;;;-0.70;86.70;;;;;;5080953;28;20214;-76
2022/01/12 08:07:15;;;;;;;25.17;14.68;;;-0.70;85.70;;;;;;5083168;28;20289;-75
2022/01/12 08:09:44;;;;;;;19.92;13.45;;;-0.60;84.90;;;;;;5092938;28;20214;-75
2022/01/12 08:12:12;;;;;;;24.30;13.77;;;-0.60;83.90;;;;;;5087579;28;20677;-76
2022/01/12 08:14:39;;;;;;;26.02;14.32;;;-0.50;83.70;;;;;;5076540;28;20283;-75
2022/01/12 08:17:05;;;;;;;20.92;14.93;;;-0.40;83.70;;;;;;5075255;28;20202;-77
2022/01/12 08:19:35;;;;;;;21.55;14.43;;;-0.20;82.70;;;;;;5076147;28;20213;-75
2022/01/12 08:22:02;;;;;;;18.60;13.30;;;-0.20;81.30;;;;;;5076486;28;20209;-80
2022/01/12 08:24:30;;;;;;;18.30;13.60;;;-0.10;78.90;;;;;;5075843;28;20261;-77
2022/01/12 08:26:57;;;;;;;21.95;12.90;;;-0.20;77.00;;;;;;5076609;28;20221;-77
2022/01/12 08:29:27;;;;;;;19.42;13.45;;;-0.20;76.90;;;;;;5077028;28;20304;-76
2022/01/12 08:31:55;;;;;;;21.02;13.98;;;-0.20;75.40;;;;;;5077168;28;20210;-76
2022/01/12 08:34:22;;;;;;;20.38;13.50;;;-0.20;75.10;;;;;;5076994;28;20236;-75
2022/01/12 08:36:49;;;;;;;22.85;14.63;;;-0.20;74.80;;;;;;5076575;28;20284;-77
2022/01/12 08:39:16;;;;;;;21.92;14.57;;;-0.20;74.00;;;;;;5075519;28;20206;-77
2022/01/12 08:41:44;;;;;;;20.08;14.15;;;-0.10;74.10;;;;;;5076409;28;20214;-76
2022/01/12 08:44:11;;;;;;;23.92;14.77;;;-0.10;73.70;;;;;;5078426;28;20268;-76
2022/01/12 08:46:40;;;;;;;22.40;13.70;;;-0.10;74.00;;;;;;5080277;28;20209;-77
2022/01/12 08:49:08;;;;;;;17.38;13.20;;;0.00;74.00;;;;;;5080381;28;20213;-76
2022/01/12 08:51:35;;;;;;;19.85;13.25;;;0.00;73.70;;;;;;5080018;28;20607;-77
2022/01/12 08:54:02;;;;;;;21.02;13.38;;;0.20;73.30;;;;;;5081290;28;20245;-77
2022/01/12 08:56:29;;;;;;;17.60;12.52;;;0.20;71.60;;;;;;5085508;28;20215;-76
2022/01/12 08:58:58;;;;;;;16.52;11.25;;;0.30;71.00;;;;;;5087366;28;20234;-76
2022/01/12 09:01:25;;;;;;;22.40;13.25;;;0.40;69.10;;;;;;5085645;28;20221;-76
2022/01/12 09:03:53;;;;;;;16.77;10.98;;;0.40;69.10;;;;;;5089214;28;20291;-76
2022/01/12 09:06:20;;;;;;;16.50;11.70;;;0.50;67.50;;;;;;5084469;28;20217;-76
2022/01/12 09:08:47;;;;;;;22.88;13.32;;;0.60;66.40;;;;;;5084822;28;20321;-77
2022/01/12 09:11:15;;;;;;;15.52;10.52;;;0.60;65.90;;;;;;5083350;28;20209;-74
2022/01/12 09:13:42;;;;;;;17.80;11.60;;;0.70;65.20;;;;;;5078765;28;20257;-75
2022/01/12 09:16:10;;;;;;;18.58;12.60;;;0.60;65.00;;;;;;5076037;28;20210;-75
2022/01/12 09:18:38;;;;;;;13.82;10.27;;;0.60;64.70;;;;;;5077225;28;20205;-75
2022/01/12 09:21:05;;;;;;;17.23;11.43;;;0.70;64.80;;;;;;5078012;28;20358;-75
2022/01/12 09:23:32;;;;;;;16.83;11.35;;;0.80;64.90;;;;;;5078580;28;20264;-74
2022/01/12 09:25:59;;;;;;;14.00;11.38;;;0.90;64.40;;;;;;5082428;28;20281;-78
2022/01/12 09:28:26;;;;;;;14.95;11.45;;;1.00;63.40;;;;;;5086169;28;20597;-78
2022/01/12 09:30:53;;;;;;;18.10;11.48;;;1.00;63.30;;;;;;5081455;28;20269;-74
2022/01/12 09:33:22;;;;;;;15.45;11.25;;;1.00;62.80;;;;;;5087333;28;20308;-76
2022/01/12 09:35:50;;;;;;;14.88;10.57;;;1.20;62.90;;;;;;5090697;28;20331;-76
2022/01/12 09:38:17;;;;;;;16.08;10.55;;;1.20;61.30;;;;;;5091343;28;20198;-76
2022/01/12 09:40:45;;;;;;;18.92;11.48;;;1.20;62.00;;;;;;5075169;28;20659;-75
2022/01/12 09:43:12;;;;;;;17.55;11.68;;;1.30;61.20;;;;;;5075117;28;20221;-76
2022/01/12 09:45:43;;;;;;;17.55;12.27;;;1.40;61.20;;;;;;5076087;28;20301;-75
2022/01/12 09:48:10;;;;;;;16.00;12.07;;;1.40;61.20;;;;;;5075178;28;20649;-77
2022/01/12 09:50:39;;;;;;;15.05;11.15;;;1.50;61.30;;;;;;5076046;28;20293;-77
2022/01/12 09:53:06;;;;;;;14.10;10.00;;;1.50;60.60;;;;;;5076465;28;20298;-75
2022/01/12 09:55:33;;;;;;;16.45;13.00;;;1.60;60.70;;;;;;5081073;28;20233;-75
2022/01/12 09:58:00;;;;;;;17.90;11.55;;;1.50;59.50;;;;;;5074306;28;20210;-75
2022/01/12 10:00:28;;;;;;;17.55;11.02;;;1.60;60.00;;;;;;5075976;28;20233;-75
2022/01/12 10:02:56;;;;;;;16.25;10.63;;;1.60;59.70;;;;;;5078805;28;20766;-76
2022/01/12 10:05:31;;;;;;;14.57;11.00;;;1.70;59.70;;;;;;5081905;28;20277;-75
2022/01/12 10:08:10;;;;;;;20.77;12.40;;;1.80;60.00;;;;;;5077830;28;20553;-75
2022/01/12 10:10:37;;;;;;;13.90;10.20;;;1.90;59.10;;;;;;5074626;28;20233;-75
2022/01/12 10:13:04;;;;;;;19.13;10.93;;;1.90;58.40;;;;;;5075073;28;20603;-75
2022/01/12 10:15:31;;;;;;;14.45;11.15;;;1.90;59.00;;;;;;5075154;28;20236;-75
2022/01/12 10:18:02;;;;;;;15.65;11.18;;;1.90;58.90;;;;;;5074826;28;20220;-74
2022/01/12 10:20:30;;;;;;;15.95;11.10;;;2.10;58.70;;;;;;5075210;28;20225;-75
2022/01/12 10:23:01;;;;;;;13.25;9.90;;;2.10;57.40;;;;;;5075895;28;20224;-73
2022/01/12 10:25:30;;;;;;;15.85;11.23;;;2.10;57.70;;;;;;5074385;28;20224;-74
2022/01/12 10:27:58;;;;;;;14.45;10.55;;;2.10;58.10;;;;;;5073230;28;20663;-72
2022/01/12 10:30:26;;;;;;;17.42;10.73;;;2.20;57.90;;;;;;5076133;28;20571;-77
2022/01/12 10:33:00;;;;;;;16.40;11.43;;;2.20;57.50;;;;;;5078935;28;20257;-75
2022/01/12 10:35:29;;;;;;;15.48;11.32;;;2.20;57.00;;;;;;5079411;28;20202;-75
2022/01/12 10:38:28;;;;;;;16.02;11.27;;;2.20;56.90;;;;;;5086146;28;20259;-75
2022/01/12 10:40:58;;;;;;;15.80;11.82;;;2.30;56.10;;;;;;5089302;28;20225;-75
2022/01/12 10:43:26;;;;;;;15.50;10.68;;;2.20;56.30;;;;;;5083999;28;20226;-74
2022/01/12 10:45:53;;;;;;;18.17;10.23;;;2.30;55.90;;;;;;5078518;28;20221;-75
2022/01/12 10:48:20;;;;;;;13.40;9.73;;;2.30;55.10;;;;;;5077466;28;20245;-77
2022/01/12 10:50:54;;;;;;;15.05;10.75;;;2.30;55.30;;;;;;5079170;28;20262;-75
2022/01/12 10:53:27;;;;;;;13.65;10.02;;;2.40;55.20;;;;;;5084145;28;20240;-74
2022/01/12 10:56:04;;;;;;;15.98;9.90;;;2.60;54.80;;;;;;5074834;28;20186;-74
2022/01/12 10:58:31;;;;;;;13.43;9.20;;;2.70;53.30;;;;;;5075447;28;20197;-77
2022/01/12 11:00:58;;;;;;;15.15;10.07;;;2.60;53.20;;;;;;5075907;28;20202;-76
2022/01/12 11:03:25;;;;;;;14.23;9.18;;;2.50;53.20;;;;;;5077762;28;20342;-76
2022/01/12 11:05:54;;;;;;;11.63;9.60;;;2.60;53.20;;;;;;5078827;28;20684;-76
2022/01/12 11:08:24;;;;;;;14.40;9.27;;;2.80;53.40;;;;;;5076447;28;20351;-73
2022/01/12 11:10:51;;;;;;;14.32;10.07;;;2.90;52.30;;;;;;5080899;28;20263;-79
2022/01/12 11:13:19;;;;;;;12.57;9.68;;;2.90;51.90;;;;;;5076466;28;20666;-73
2022/01/12 11:15:46;;;;;;;10.60;8.45;;;3.00;51.70;;;;;;5076657;28;20366;-75
2022/01/12 11:18:15;;;;;;;10.35;8.52;;;3.10;51.30;;;;;;5079849;28;20241;-77
2022/01/12 11:20:44;;;;;;;11.32;8.50;;;3.00;50.80;;;;;;5076481;28;20313;-75
2022/01/12 11:23:13;;;;;;;12.40;9.68;;;3.10;50.60;;;;;;5077502;28;20261;-77
2022/01/12 11:25:42;;;;;;;12.48;9.13;;;3.10;50.60;;;;;;5078276;28;20673;-75
2022/01/12 11:28:12;;;;;;;12.93;8.95;;;3.20;51.10;;;;;;5076754;28;20313;-74
2022/01/12 11:30:44;;;;;;;12.02;8.45;;;3.20;50.10;;;;;;5075914;28;20301;-77
2022/01/12 11:33:13;;;;;;;15.02;9.55;;;3.20;50.20;;;;;;5077492;28;20229;-75
2022/01/12 11:35:43;;;;;;;9.88;8.05;;;3.20;49.90;;;;;;5083669;28;20633;-77
2022/01/12 11:38:22;;;;;;;12.23;7.75;;;3.10;49.00;;;;;;5091406;28;20205;-75
2022/01/12 11:40:50;;;;;;;10.05;7.90;;;3.20;49.10;;;;;;5080006;28;20584;-77
2022/01/12 11:43:25;;;;;;;10.27;7.63;;;3.30;48.60;;;;;;5077700;28;20234;-75
2022/01/12 11:46:06;;;;;;;10.57;6.95;;;3.40;48.60;;;;;;5078681;28;20269;-73
2022/01/12 11:48:35;;;;;;;12.43;7.55;;;3.50;48.10;;;;;;5081979;28;20226;-76
2022/01/12 11:51:02;;;;;;;9.35;7.20;;;3.60;48.00;;;;;;5077097;28;20614;-75
2022/01/12 11:53:31;;;;;;;9.70;7.55;;;3.50;46.80;;;;;;5077054;28;20238;-76
2022/01/12 11:56:12;;;;;;;9.75;7.35;;;3.20;47.60;;;;;;5077053;28;20228;-76
2022/01/12 11:58:51;;;;;;;10.15;7.53;;;3.20;47.70;;;;;;5075966;28;20190;-75
2022/01/12 12:01:19;;;;;;;11.90;9.15;;;3.40;47.90;;;;;;5076953;28;20213;-75
2022/01/12 12:03:57;;;;;;;12.82;9.90;;;3.50;48.10;;;;;;5075994;28;20762;-75
2022/01/12 12:06:24;;;;;;;12.00;9.18;;;3.50;48.00;;;;;;5075519;28;20274;-75
2022/01/12 12:09:03;;;;;;;10.85;7.68;;;3.50;47.80;;;;;;5076194;28;20588;-76
2022/01/12 12:11:31;;;;;;;9.07;7.10;;;3.60;47.30;;;;;;5081531;28;20323;-77
2022/01/12 12:14:03;;;;;;;10.82;8.40;;;3.50;47.80;;;;;;5076558;28;20226;-73
2022/01/12 12:16:33;;;;;;;10.80;7.68;;;3.50;47.20;;;;;;5079818;28;20229;-75
2022/01/12 12:19:03;;;;;;;11.70;7.63;;;3.60;47.30;;;;;;5083810;28;20694;-77
2022/01/12 12:21:30;;;;;;;11.15;8.80;;;3.70;46.90;;;;;;5083621;28;20221;-76
2022/01/12 12:24:08;;;;;;;11.63;8.40;;;3.70;47.90;;;;;;5075379;28;20243;-74
2022/01/12 12:26:42;;;;;;;11.38;8.48;;;3.70;48.60;;;;;;5076871;28;20236;-75
2022/01/12 12:29:09;;;;;;;11.48;7.95;;;3.70;47.60;;;;;;5076628;28;20697;-74
2022/01/12 12:31:39;;;;;;;11.45;8.85;;;3.50;47.10;;;;;;5076883;28;20657;-75
2022/01/12 12:34:07;;;;;;;10.90;8.45;;;3.50;47.50;;;;;;5074677;28;20225;-75
2022/01/12 12:36:34;;;;;;;9.90;7.70;;;3.60;47.70;;;;;;5074561;28;20213;-76
2022/01/12 12:39:10;;;;;;;11.15;7.63;;;3.60;46.90;;;;;;5075582;28;20205;-78
2022/01/12 12:41:41;;;;;;;12.20;8.45;;;3.40;46.80;;;;;;5075006;28;20205;-76
2022/01/12 12:44:20;;;;;;;10.25;8.30;;;3.40;47.50;;;;;;5083129;28;20242;-77
2022/01/12 12:46:50;;;;;;;13.38;8.80;;;3.40;47.20;;;;;;5081652;28;20639;-76
2022/01/12 12:49:17;;;;;;;13.05;8.45;;;3.40;47.70;;;;;;5076515;28;20317;-76
2022/01/12 12:51:44;;;;;;;10.85;8.35;;;3.30;47.80;;;;;;5076191;28;20674;-76
2022/01/12 12:54:13;;;;;;;10.20;8.50;;;3.40;48.40;;;;;;5076449;28;20701;-76
2022/01/12 12:56:47;;;;;;;11.75;8.40;;;3.40;47.90;;;;;;5076625;28;20210;-77
2022/01/12 12:59:15;;;;;;;14.18;8.90;;;3.50;48.00;;;;;;5075836;28;20231;-76
2022/01/12 13:01:42;;;;;;;11.45;8.73;;;3.60;46.90;;;;;;5076271;28;20236;-77
2022/01/12 13:04:11;;;;;;;10.00;7.43;;;3.60;47.00;;;;;;5076709;28;20260;-76
2022/01/12 13:06:38;;;;;;;9.80;6.93;;;3.60;47.00;;;;;;5082108;28;20210;-75
2022/01/12 13:09:07;;;;;;;16.27;9.88;;;3.60;46.90;;;;;;5080260;28;20300;-76
2022/01/12 13:11:36;;;;;;;12.85;9.45;;;3.60;47.20;;;;;;5075901;28;20236;-75
2022/01/12 13:14:06;;;;;;;12.25;8.73;;;3.60;47.40;;;;;;5093722;28;20230;-75
2022/01/12 13:16:36;;;;;;;14.38;9.77;;;3.50;47.60;;;;;;5093017;28;20290;-77
2022/01/12 13:19:20;;;;;;;11.43;9.07;;;3.50;47.70;;;;;;5091751;28;20256;-75
2022/01/12 13:21:59;;;;;;;12.68;8.90;;;3.40;48.10;;;;;;5093572;28;20198;-76
2022/01/12 13:24:28;;;;;;;13.73;9.07;;;3.40;48.30;;;;;;5089055;28;20233;-75
2022/01/12 13:27:00;;;;;;;12.50;8.73;;;3.40;48.00;;;;;;5094549;28;20206;-77
2022/01/12 13:29:27;;;;;;;11.40;8.50;;;3.40;48.20;;;;;;5094333;28;20221;-76
2022/01/12 13:31:54;;;;;;;11.05;8.70;;;3.50;48.30;;;;;;5093411;28;20745;-77
2022/01/12 13:34:30;;;;;;;11.13;8.32;;;3.50;48.20;;;;;;5091963;28;20257;-76
2022/01/12 13:36:59;;;;;;;10.63;8.82;;;3.60;48.20;;;;;;5086545;28;20201;-75
2022/01/12 13:39:25;;;;;;;13.30;8.90;;;3.50;47.60;;;;;;5087750;28;20283;-76
2022/01/12 13:41:52;;;;;;;12.65;9.57;;;3.60;48.50;;;;;;5091101;28;20224;-77
2022/01/12 13:44:21;;;;;;;14.68;8.85;;;3.60;47.70;;;;;;5080652;28;20235;-75
2022/01/12 13:47:00;;;;;;;13.63;9.40;;;3.50;48.00;;;;;;5080484;28;20209;-75
2022/01/12 13:49:27;;;;;;;17.30;9.70;;;3.40;47.70;;;;;;5084821;28;20225;-76
2022/01/12 13:51:57;;;;;;;11.50;8.63;;;3.40;48.20;;;;;;5083393;28;20205;-76
2022/01/12 13:54:29;;;;;;;15.48;8.70;;;3.30;48.30;;;;;;5084621;22;20226;-76
2022/01/12 13:56:56;;;;;;;11.73;8.95;;;3.40;49.20;;;;;;5055827;28;20190;-76